sensor_id;sensor_type;location;lat;lon;timestamp;P1;durP1;ratioP1;P2;durP2;ratioP2
15716;SDS011;7960;50.908;4.204;2022-09-01T00:01:23;6.80;;;4.00;;
15716;SDS011;7960;50.908;4.204;2022-09-01T00:03:51;6.20;;;3.83;;
15716;SDS011;7960;50.908;4.204;2022-09-01T00:06:19;4.67;;;3.37;;
15716;SDS011;7960;50.908;4.204;2022-09-01T00:08:49;7.47;;;4.20;;
15716;SDS011;7960;50.908;4.204;2022-09-01T00:11:17;5.47;;;3.60;;
15716;SDS011;7960;50.908;4.204;2022-09-01T00:13:45;6.87;;;3.70;;
15716;SDS011;7960;50.908;4.204;2022-09-01T00:16:13;5.13;;;3.90;;
15716;SDS011;7960;50.908;4.204;2022-09-01T00:18:42;7.13;;;4.00;;
15716;SDS011;7960;50.908;4.204;2022-09-01T00:21:14;6.43;;;4.10;;
15716;SDS011;7960;50.908;4.204;2022-09-01T00:23:42;9.37;;;3.90;;
15716;SDS011;7960;50.908;4.204;2022-09-01T00:26:10;4.90;;;3.93;;
15716;SDS011;7960;50.908;4.204;2022-09-01T00:28:37;5.90;;;3.80;;
15716;SDS011;7960;50.908;4.204;2022-09-01T00:31:05;6.50;;;3.93;;
15716;SDS011;7960;50.908;4.204;2022-09-01T00:33:35;7.27;;;3.90;;
15716;SDS011;7960;50.908;4.204;2022-09-01T00:36:02;5.40;;;3.80;;
15716;SDS011;7960;50.908;4.204;2022-09-01T00:38:29;6.57;;;3.83;;
15716;SDS011;7960;50.908;4.204;2022-09-01T00:40:57;8.27;;;3.80;;
15716;SDS011;7960;50.908;4.204;2022-09-01T00:43:35;5.37;;;3.73;;
15716;SDS011;7960;50.908;4.204;2022-09-01T00:46:04;4.30;;;3.90;;
15716;SDS011;7960;50.908;4.204;2022-09-01T00:48:33;5.03;;;3.80;;
15716;SDS011;7960;50.908;4.204;2022-09-01T00:51:00;4.20;;;3.27;;
15716;SDS011;7960;50.908;4.204;2022-09-01T00:53:28;5.17;;;4.07;;
15716;SDS011;7960;50.908;4.204;2022-09-01T00:55:56;5.83;;;3.30;;
15716;SDS011;7960;50.908;4.204;2022-09-01T00:58:23;5.00;;;3.90;;
15716;SDS011;7960;50.908;4.204;2022-09-01T01:00:52;6.73;;;3.97;;
15716;SDS011;7960;50.908;4.204;2022-09-01T01:03:19;4.70;;;3.67;;
15716;SDS011;7960;50.908;4.204;2022-09-01T01:05:48;5.17;;;3.60;;
15716;SDS011;7960;50.908;4.204;2022-09-01T01:08:19;7.47;;;4.00;;
15716;SDS011;7960;50.908;4.204;2022-09-01T01:10:53;3.53;;;3.20;;
15716;SDS011;7960;50.908;4.204;2022-09-01T01:13:21;5.63;;;3.63;;
15716;SDS011;7960;50.908;4.204;2022-09-01T01:15:50;4.60;;;3.57;;
15716;SDS011;7960;50.908;4.204;2022-09-01T01:18:18;4.90;;;3.30;;
15716;SDS011;7960;50.908;4.204;2022-09-01T01:20:45;7.07;;;3.30;;
15716;SDS011;7960;50.908;4.204;2022-09-01T01:23:35;6.67;;;3.67;;
15716;SDS011;7960;50.908;4.204;2022-09-01T01:26:07;5.97;;;3.60;;
15716;SDS011;7960;50.908;4.204;2022-09-01T01:28:36;5.77;;;3.57;;
15716;SDS011;7960;50.908;4.204;2022-09-01T01:31:05;4.27;;;3.53;;
15716;SDS011;7960;50.908;4.204;2022-09-01T01:33:37;4.13;;;3.30;;
15716;SDS011;7960;50.908;4.204;2022-09-01T01:36:06;6.97;;;3.30;;
15716;SDS011;7960;50.908;4.204;2022-09-01T01:38:36;4.90;;;3.17;;
15716;SDS011;7960;50.908;4.204;2022-09-01T01:41:08;5.73;;;3.77;;
15716;SDS011;7960;50.908;4.204;2022-09-01T01:43:35;7.00;;;3.60;;
15716;SDS011;7960;50.908;4.204;2022-09-01T01:46:03;6.03;;;3.53;;
15716;SDS011;7960;50.908;4.204;2022-09-01T01:48:32;4.63;;;3.30;;
15716;SDS011;7960;50.908;4.204;2022-09-01T01:51:00;4.60;;;3.37;;
15716;SDS011;7960;50.908;4.204;2022-09-01T01:53:28;4.63;;;3.40;;
15716;SDS011;7960;50.908;4.204;2022-09-01T01:55:56;3.40;;;2.73;;
15716;SDS011;7960;50.908;4.204;2022-09-01T01:58:26;5.10;;;3.20;;
15716;SDS011;7960;50.908;4.204;2022-09-01T02:00:54;3.60;;;2.60;;
15716;SDS011;7960;50.908;4.204;2022-09-01T02:03:23;3.73;;;3.10;;
15716;SDS011;7960;50.908;4.204;2022-09-01T02:05:53;6.07;;;3.10;;
15716;SDS011;7960;50.908;4.204;2022-09-01T02:08:22;3.90;;;2.73;;
15716;SDS011;7960;50.908;4.204;2022-09-01T02:10:50;5.20;;;2.80;;
15716;SDS011;7960;50.908;4.204;2022-09-01T02:13:20;4.23;;;3.00;;
15716;SDS011;7960;50.908;4.204;2022-09-01T02:15:57;3.40;;;2.63;;
15716;SDS011;7960;50.908;4.204;2022-09-01T02:18:27;5.70;;;2.90;;
15716;SDS011;7960;50.908;4.204;2022-09-01T02:20:58;5.47;;;2.70;;
15716;SDS011;7960;50.908;4.204;2022-09-01T02:23:25;4.70;;;3.10;;
15716;SDS011;7960;50.908;4.204;2022-09-01T02:25:53;3.63;;;2.93;;
15716;SDS011;7960;50.908;4.204;2022-09-01T02:28:23;4.67;;;2.77;;
15716;SDS011;7960;50.908;4.204;2022-09-01T02:30:52;3.83;;;2.50;;
15716;SDS011;7960;50.908;4.204;2022-09-01T02:33:23;3.10;;;2.77;;
15716;SDS011;7960;50.908;4.204;2022-09-01T02:35:51;5.23;;;2.87;;
15716;SDS011;7960;50.908;4.204;2022-09-01T02:38:19;4.87;;;3.17;;
15716;SDS011;7960;50.908;4.204;2022-09-01T02:40:53;4.57;;;3.03;;
15716;SDS011;7960;50.908;4.204;2022-09-01T02:43:22;4.30;;;2.63;;
15716;SDS011;7960;50.908;4.204;2022-09-01T02:45:53;3.73;;;3.00;;
15716;SDS011;7960;50.908;4.204;2022-09-01T02:48:25;4.77;;;3.03;;
15716;SDS011;7960;50.908;4.204;2022-09-01T02:50:57;5.13;;;2.80;;
15716;SDS011;7960;50.908;4.204;2022-09-01T02:53:26;3.13;;;2.73;;
15716;SDS011;7960;50.908;4.204;2022-09-01T02:55:53;3.57;;;2.80;;
15716;SDS011;7960;50.908;4.204;2022-09-01T02:58:21;4.77;;;3.10;;
15716;SDS011;7960;50.908;4.204;2022-09-01T03:00:50;3.60;;;2.80;;
15716;SDS011;7960;50.908;4.204;2022-09-01T03:03:19;5.43;;;3.00;;
15716;SDS011;7960;50.908;4.204;2022-09-01T03:05:49;3.93;;;2.90;;
15716;SDS011;7960;50.908;4.204;2022-09-01T03:08:20;2.83;;;2.63;;
15716;SDS011;7960;50.908;4.204;2022-09-01T03:10:49;5.17;;;3.00;;
15716;SDS011;7960;50.908;4.204;2022-09-01T03:13:18;6.00;;;3.30;;
15716;SDS011;7960;50.908;4.204;2022-09-01T03:15:49;6.73;;;3.40;;
15716;SDS011;7960;50.908;4.204;2022-09-01T03:18:16;5.33;;;3.60;;
15716;SDS011;7960;50.908;4.204;2022-09-01T03:20:44;7.03;;;3.90;;
15716;SDS011;7960;50.908;4.204;2022-09-01T03:23:14;8.43;;;3.50;;
15716;SDS011;7960;50.908;4.204;2022-09-01T03:25:42;4.57;;;3.57;;
15716;SDS011;7960;50.908;4.204;2022-09-01T03:28:11;4.70;;;3.37;;
15716;SDS011;7960;50.908;4.204;2022-09-01T03:30:42;6.20;;;3.60;;
15716;SDS011;7960;50.908;4.204;2022-09-01T03:33:11;6.47;;;3.47;;
15716;SDS011;7960;50.908;4.204;2022-09-01T03:35:38;6.00;;;4.00;;
15716;SDS011;7960;50.908;4.204;2022-09-01T03:38:06;6.17;;;3.70;;
15716;SDS011;7960;50.908;4.204;2022-09-01T03:40:34;6.80;;;3.90;;
15716;SDS011;7960;50.908;4.204;2022-09-01T03:43:02;3.97;;;3.20;;
15716;SDS011;7960;50.908;4.204;2022-09-01T03:45:31;10.70;;;4.07;;
15716;SDS011;7960;50.908;4.204;2022-09-01T03:48:02;10.47;;;4.20;;
15716;SDS011;7960;50.908;4.204;2022-09-01T03:50:33;6.50;;;4.03;;
15716;SDS011;7960;50.908;4.204;2022-09-01T03:53:04;5.33;;;3.50;;
15716;SDS011;7960;50.908;4.204;2022-09-01T03:55:31;9.30;;;4.40;;
15716;SDS011;7960;50.908;4.204;2022-09-01T03:58:03;5.30;;;3.80;;
15716;SDS011;7960;50.908;4.204;2022-09-01T04:00:32;14.83;;;4.93;;
15716;SDS011;7960;50.908;4.204;2022-09-01T04:03:03;6.03;;;4.27;;
15716;SDS011;7960;50.908;4.204;2022-09-01T04:05:32;5.67;;;3.77;;
15716;SDS011;7960;50.908;4.204;2022-09-01T04:08:03;6.80;;;3.80;;
15716;SDS011;7960;50.908;4.204;2022-09-01T04:10:32;4.70;;;3.73;;
15716;SDS011;7960;50.908;4.204;2022-09-01T04:13:01;5.13;;;3.57;;
15716;SDS011;7960;50.908;4.204;2022-09-01T04:15:30;6.23;;;3.73;;
15716;SDS011;7960;50.908;4.204;2022-09-01T04:17:58;6.50;;;4.50;;
15716;SDS011;7960;50.908;4.204;2022-09-01T04:20:33;5.67;;;3.93;;
15716;SDS011;7960;50.908;4.204;2022-09-01T04:23:12;6.60;;;4.07;;
15716;SDS011;7960;50.908;4.204;2022-09-01T04:25:42;5.63;;;3.63;;
15716;SDS011;7960;50.908;4.204;2022-09-01T04:28:10;6.40;;;3.60;;
15716;SDS011;7960;50.908;4.204;2022-09-01T04:30:47;4.37;;;3.60;;
15716;SDS011;7960;50.908;4.204;2022-09-01T04:33:15;6.47;;;3.90;;
15716;SDS011;7960;50.908;4.204;2022-09-01T04:35:42;5.50;;;3.67;;
15716;SDS011;7960;50.908;4.204;2022-09-01T04:38:09;7.33;;;3.83;;
15716;SDS011;7960;50.908;4.204;2022-09-01T04:40:39;6.93;;;4.03;;
15716;SDS011;7960;50.908;4.204;2022-09-01T04:43:08;6.13;;;3.73;;
15716;SDS011;7960;50.908;4.204;2022-09-01T04:45:35;8.60;;;4.50;;
15716;SDS011;7960;50.908;4.204;2022-09-01T04:48:02;6.90;;;3.67;;
15716;SDS011;7960;50.908;4.204;2022-09-01T04:50:30;10.60;;;3.87;;
15716;SDS011;7960;50.908;4.204;2022-09-01T04:52:59;7.37;;;3.87;;
15716;SDS011;7960;50.908;4.204;2022-09-01T04:55:29;7.97;;;3.90;;
15716;SDS011;7960;50.908;4.204;2022-09-01T04:57:58;9.27;;;4.03;;
15716;SDS011;7960;50.908;4.204;2022-09-01T05:00:27;7.90;;;3.90;;
15716;SDS011;7960;50.908;4.204;2022-09-01T05:02:57;11.87;;;4.30;;
15716;SDS011;7960;50.908;4.204;2022-09-01T05:05:29;12.93;;;4.70;;
15716;SDS011;7960;50.908;4.204;2022-09-01T05:08:06;6.10;;;3.93;;
15716;SDS011;7960;50.908;4.204;2022-09-01T05:10:38;7.67;;;4.03;;
15716;SDS011;7960;50.908;4.204;2022-09-01T05:13:08;5.73;;;3.97;;
15716;SDS011;7960;50.908;4.204;2022-09-01T05:15:37;7.63;;;4.17;;
15716;SDS011;7960;50.908;4.204;2022-09-01T05:18:11;10.33;;;4.40;;
15716;SDS011;7960;50.908;4.204;2022-09-01T05:20:40;5.73;;;4.10;;
15716;SDS011;7960;50.908;4.204;2022-09-01T05:23:08;13.80;;;4.33;;
15716;SDS011;7960;50.908;4.204;2022-09-01T05:25:38;8.20;;;4.37;;
15716;SDS011;7960;50.908;4.204;2022-09-01T05:28:09;15.03;;;4.83;;
15716;SDS011;7960;50.908;4.204;2022-09-01T05:30:37;12.53;;;4.50;;
15716;SDS011;7960;50.908;4.204;2022-09-01T05:33:05;5.97;;;4.00;;
15716;SDS011;7960;50.908;4.204;2022-09-01T05:35:36;8.97;;;5.10;;
15716;SDS011;7960;50.908;4.204;2022-09-01T05:38:07;8.10;;;4.70;;
15716;SDS011;7960;50.908;4.204;2022-09-01T05:40:37;13.40;;;4.63;;
15716;SDS011;7960;50.908;4.204;2022-09-01T05:43:05;11.60;;;4.77;;
15716;SDS011;7960;50.908;4.204;2022-09-01T05:45:37;7.53;;;5.00;;
15716;SDS011;7960;50.908;4.204;2022-09-01T05:48:08;8.90;;;4.50;;
15716;SDS011;7960;50.908;4.204;2022-09-01T05:50:38;8.63;;;5.63;;
15716;SDS011;7960;50.908;4.204;2022-09-01T05:53:07;8.43;;;4.93;;
15716;SDS011;7960;50.908;4.204;2022-09-01T05:55:40;11.63;;;5.20;;
15716;SDS011;7960;50.908;4.204;2022-09-01T05:58:08;17.27;;;8.07;;
15716;SDS011;7960;50.908;4.204;2022-09-01T06:00:39;9.00;;;5.70;;
15716;SDS011;7960;50.908;4.204;2022-09-01T06:03:07;11.83;;;5.40;;
15716;SDS011;7960;50.908;4.204;2022-09-01T06:05:35;11.53;;;5.70;;
15716;SDS011;7960;50.908;4.204;2022-09-01T06:08:04;10.03;;;5.40;;
15716;SDS011;7960;50.908;4.204;2022-09-01T06:10:32;11.00;;;7.53;;
15716;SDS011;7960;50.908;4.204;2022-09-01T06:13:04;13.87;;;6.60;;
15716;SDS011;7960;50.908;4.204;2022-09-01T06:15:31;13.70;;;6.57;;
15716;SDS011;7960;50.908;4.204;2022-09-01T06:17:59;11.13;;;5.90;;
15716;SDS011;7960;50.908;4.204;2022-09-01T06:20:26;14.40;;;6.60;;
15716;SDS011;7960;50.908;4.204;2022-09-01T06:22:54;12.43;;;6.40;;
15716;SDS011;7960;50.908;4.204;2022-09-01T06:25:21;10.03;;;6.87;;
15716;SDS011;7960;50.908;4.204;2022-09-01T06:27:50;9.13;;;6.60;;
15716;SDS011;7960;50.908;4.204;2022-09-01T06:30:18;16.97;;;6.20;;
15716;SDS011;7960;50.908;4.204;2022-09-01T06:32:48;9.30;;;6.60;;
15716;SDS011;7960;50.908;4.204;2022-09-01T06:35:18;19.53;;;7.17;;
15716;SDS011;7960;50.908;4.204;2022-09-01T06:37:45;20.57;;;7.40;;
15716;SDS011;7960;50.908;4.204;2022-09-01T06:40:13;24.03;;;8.03;;
15716;SDS011;7960;50.908;4.204;2022-09-01T06:42:42;12.87;;;6.77;;
15716;SDS011;7960;50.908;4.204;2022-09-01T06:45:11;17.13;;;6.63;;
15716;SDS011;7960;50.908;4.204;2022-09-01T06:47:39;11.90;;;6.43;;
15716;SDS011;7960;50.908;4.204;2022-09-01T06:50:08;11.03;;;6.30;;
15716;SDS011;7960;50.908;4.204;2022-09-01T06:52:38;12.97;;;6.23;;
15716;SDS011;7960;50.908;4.204;2022-09-01T06:55:07;13.10;;;6.47;;
15716;SDS011;7960;50.908;4.204;2022-09-01T06:57:34;18.97;;;6.70;;
15716;SDS011;7960;50.908;4.204;2022-09-01T07:00:03;16.37;;;6.47;;
15716;SDS011;7960;50.908;4.204;2022-09-01T07:02:41;22.20;;;7.13;;
15716;SDS011;7960;50.908;4.204;2022-09-01T07:05:09;13.47;;;6.57;;
15716;SDS011;7960;50.908;4.204;2022-09-01T07:07:40;15.97;;;10.97;;
15716;SDS011;7960;50.908;4.204;2022-09-01T07:10:08;13.97;;;6.10;;
15716;SDS011;7960;50.908;4.204;2022-09-01T07:12:36;17.57;;;6.87;;
15716;SDS011;7960;50.908;4.204;2022-09-01T07:15:05;17.00;;;6.97;;
15716;SDS011;7960;50.908;4.204;2022-09-01T07:17:33;13.70;;;6.67;;
15716;SDS011;7960;50.908;4.204;2022-09-01T07:20:00;12.13;;;6.40;;
15716;SDS011;7960;50.908;4.204;2022-09-01T07:22:27;8.37;;;6.80;;
15716;SDS011;7960;50.908;4.204;2022-09-01T07:24:55;20.87;;;6.60;;
15716;SDS011;7960;50.908;4.204;2022-09-01T07:27:23;10.33;;;6.30;;
15716;SDS011;7960;50.908;4.204;2022-09-01T07:29:52;8.97;;;6.43;;
15716;SDS011;7960;50.908;4.204;2022-09-01T07:32:20;14.57;;;7.13;;
15716;SDS011;7960;50.908;4.204;2022-09-01T07:34:47;9.70;;;6.70;;
15716;SDS011;7960;50.908;4.204;2022-09-01T07:37:16;10.13;;;6.37;;
15716;SDS011;7960;50.908;4.204;2022-09-01T07:39:47;13.30;;;7.00;;
15716;SDS011;7960;50.908;4.204;2022-09-01T07:42:16;18.23;;;6.27;;
15716;SDS011;7960;50.908;4.204;2022-09-01T07:44:44;10.40;;;6.60;;
15716;SDS011;7960;50.908;4.204;2022-09-01T07:47:11;14.07;;;7.47;;
15716;SDS011;7960;50.908;4.204;2022-09-01T07:49:39;9.57;;;7.00;;
15716;SDS011;7960;50.908;4.204;2022-09-01T07:52:06;11.03;;;6.43;;
15716;SDS011;7960;50.908;4.204;2022-09-01T07:54:33;10.70;;;7.20;;
15716;SDS011;7960;50.908;4.204;2022-09-01T07:57:01;15.77;;;6.43;;
15716;SDS011;7960;50.908;4.204;2022-09-01T07:59:30;15.67;;;6.60;;
15716;SDS011;7960;50.908;4.204;2022-09-01T08:01:59;10.17;;;6.83;;
15716;SDS011;7960;50.908;4.204;2022-09-01T08:04:28;9.63;;;6.43;;
15716;SDS011;7960;50.908;4.204;2022-09-01T08:06:55;10.90;;;6.60;;
15716;SDS011;7960;50.908;4.204;2022-09-01T08:09:22;13.37;;;6.60;;
15716;SDS011;7960;50.908;4.204;2022-09-01T08:11:49;11.70;;;6.17;;
15716;SDS011;7960;50.908;4.204;2022-09-01T08:14:16;11.03;;;6.07;;
15716;SDS011;7960;50.908;4.204;2022-09-01T08:16:45;7.47;;;6.10;;
15716;SDS011;7960;50.908;4.204;2022-09-01T08:19:11;12.37;;;6.97;;
15716;SDS011;7960;50.908;4.204;2022-09-01T08:21:38;15.17;;;6.60;;
15716;SDS011;7960;50.908;4.204;2022-09-01T08:24:05;15.67;;;6.80;;
15716;SDS011;7960;50.908;4.204;2022-09-01T08:26:32;12.13;;;5.90;;
15716;SDS011;7960;50.908;4.204;2022-09-01T08:28:59;10.77;;;6.10;;
15716;SDS011;7960;50.908;4.204;2022-09-01T08:31:26;8.23;;;5.87;;
15716;SDS011;7960;50.908;4.204;2022-09-01T08:33:54;10.93;;;6.77;;
15716;SDS011;7960;50.908;4.204;2022-09-01T08:36:22;9.47;;;5.87;;
15716;SDS011;7960;50.908;4.204;2022-09-01T08:38:49;14.20;;;6.37;;
15716;SDS011;7960;50.908;4.204;2022-09-01T08:41:18;12.33;;;6.30;;
15716;SDS011;7960;50.908;4.204;2022-09-01T08:43:59;7.27;;;5.37;;
15716;SDS011;7960;50.908;4.204;2022-09-01T08:46:36;9.27;;;5.67;;
15716;SDS011;7960;50.908;4.204;2022-09-01T08:49:09;13.77;;;5.67;;
15716;SDS011;7960;50.908;4.204;2022-09-01T08:51:41;8.67;;;5.27;;
15716;SDS011;7960;50.908;4.204;2022-09-01T08:54:14;12.37;;;5.43;;
15716;SDS011;7960;50.908;4.204;2022-09-01T08:56:50;21.47;;;6.80;;
15716;SDS011;7960;50.908;4.204;2022-09-01T08:59:20;5.00;;;4.57;;
15716;SDS011;7960;50.908;4.204;2022-09-01T09:01:49;7.60;;;4.60;;
15716;SDS011;7960;50.908;4.204;2022-09-01T09:04:33;9.73;;;5.20;;
15716;SDS011;7960;50.908;4.204;2022-09-01T09:07:12;5.73;;;4.83;;
15716;SDS011;7960;50.908;4.204;2022-09-01T09:09:48;13.13;;;5.27;;
15716;SDS011;7960;50.908;4.204;2022-09-01T09:15:08;8.03;;;4.97;;
15716;SDS011;7960;50.908;4.204;2022-09-01T09:17:43;8.30;;;5.00;;
15716;SDS011;7960;50.908;4.204;2022-09-01T09:20:14;9.70;;;4.30;;
15716;SDS011;7960;50.908;4.204;2022-09-01T09:22:42;27.00;;;6.17;;
15716;SDS011;7960;50.908;4.204;2022-09-01T09:25:13;8.53;;;4.30;;
15716;SDS011;7960;50.908;4.204;2022-09-01T09:27:42;10.90;;;4.90;;
15716;SDS011;7960;50.908;4.204;2022-09-01T09:30:12;9.10;;;4.90;;
15716;SDS011;7960;50.908;4.204;2022-09-01T09:32:42;25.13;;;6.10;;
15716;SDS011;7960;50.908;4.204;2022-09-01T09:35:19;12.23;;;4.17;;
15716;SDS011;7960;50.908;4.204;2022-09-01T09:37:49;7.53;;;4.57;;
15716;SDS011;7960;50.908;4.204;2022-09-01T09:40:17;4.63;;;4.10;;
15716;SDS011;7960;50.908;4.204;2022-09-01T09:42:59;7.10;;;3.93;;
15716;SDS011;7960;50.908;4.204;2022-09-01T09:45:30;4.90;;;4.10;;
15716;SDS011;7960;50.908;4.204;2022-09-01T09:47:59;6.87;;;4.30;;
15716;SDS011;7960;50.908;4.204;2022-09-01T09:50:33;5.50;;;3.93;;
15716;SDS011;7960;50.908;4.204;2022-09-01T09:53:10;5.40;;;4.13;;
15716;SDS011;7960;50.908;4.204;2022-09-01T09:55:48;6.33;;;4.17;;
15716;SDS011;7960;50.908;4.204;2022-09-01T09:58:20;5.37;;;3.87;;
15716;SDS011;7960;50.908;4.204;2022-09-01T10:00:57;7.30;;;4.20;;
15716;SDS011;7960;50.908;4.204;2022-09-01T10:03:32;10.67;;;4.73;;
15716;SDS011;7960;50.908;4.204;2022-09-01T10:06:02;13.53;;;4.97;;
15716;SDS011;7960;50.908;4.204;2022-09-01T10:08:38;8.80;;;4.43;;
15716;SDS011;7960;50.908;4.204;2022-09-01T10:11:10;7.40;;;4.23;;
15716;SDS011;7960;50.908;4.204;2022-09-01T10:13:50;9.80;;;4.30;;
15716;SDS011;7960;50.908;4.204;2022-09-01T10:16:18;6.47;;;4.10;;
15716;SDS011;7960;50.908;4.204;2022-09-01T10:18:50;6.13;;;4.50;;
15716;SDS011;7960;50.908;4.204;2022-09-01T10:21:25;10.37;;;4.60;;
15716;SDS011;7960;50.908;4.204;2022-09-01T10:23:58;5.93;;;3.80;;
15716;SDS011;7960;50.908;4.204;2022-09-01T10:26:28;5.80;;;4.33;;
15716;SDS011;7960;50.908;4.204;2022-09-01T10:29:00;7.00;;;4.07;;
15716;SDS011;7960;50.908;4.204;2022-09-01T10:31:33;5.03;;;3.85;;
15716;SDS011;7960;50.908;4.204;2022-09-01T10:34:01;16.60;;;5.00;;
15716;SDS011;7960;50.908;4.204;2022-09-01T10:36:32;13.37;;;5.50;;
15716;SDS011;7960;50.908;4.204;2022-09-01T10:39:01;16.30;;;4.73;;
15716;SDS011;7960;50.908;4.204;2022-09-01T10:41:42;8.67;;;3.73;;
15716;SDS011;7960;50.908;4.204;2022-09-01T10:44:17;10.30;;;3.30;;
15716;SDS011;7960;50.908;4.204;2022-09-01T10:46:49;9.57;;;3.33;;
15716;SDS011;7960;50.908;4.204;2022-09-01T10:49:21;10.57;;;3.80;;
15716;SDS011;7960;50.908;4.204;2022-09-01T10:55:30;9.50;;;3.20;;
15716;SDS011;7960;50.908;4.204;2022-09-01T11:01:01;4.57;;;2.70;;
15716;SDS011;7960;50.908;4.204;2022-09-01T11:03:38;6.80;;;2.93;;
15716;SDS011;7960;50.908;4.204;2022-09-01T11:09:20;7.60;;;3.27;;
15716;SDS011;7960;50.908;4.204;2022-09-01T11:14:56;5.03;;;3.10;;
15716;SDS011;7960;50.908;4.204;2022-09-01T11:17:24;6.53;;;3.35;;
15716;SDS011;7960;50.908;4.204;2022-09-01T11:19:54;8.67;;;3.60;;
15716;SDS011;7960;50.908;4.204;2022-09-01T11:22:27;6.43;;;3.13;;
15716;SDS011;7960;50.908;4.204;2022-09-01T11:28:07;7.40;;;4.60;;
15716;SDS011;7960;50.908;4.204;2022-09-01T11:30:59;5.03;;;3.00;;
15716;SDS011;7960;50.908;4.204;2022-09-01T11:33:49;4.00;;;3.27;;
15716;SDS011;7960;50.908;4.204;2022-09-01T11:36:25;5.45;;;4.00;;
15716;SDS011;7960;50.908;4.204;2022-09-01T11:38:57;3.90;;;3.45;;
15716;SDS011;7960;50.908;4.204;2022-09-01T11:41:30;6.40;;;3.50;;
15716;SDS011;7960;50.908;4.204;2022-09-01T11:44:08;14.57;;;4.20;;
15716;SDS011;7960;50.908;4.204;2022-09-01T11:46:38;4.07;;;3.20;;
15716;SDS011;7960;50.908;4.204;2022-09-01T11:49:17;10.95;;;3.60;;
15716;SDS011;7960;50.908;4.204;2022-09-01T11:51:53;5.97;;;3.30;;
15716;SDS011;7960;50.908;4.204;2022-09-01T11:54:21;9.60;;;4.00;;
15716;SDS011;7960;50.908;4.204;2022-09-01T11:56:49;3.30;;;3.00;;
15716;SDS011;7960;50.908;4.204;2022-09-01T12:02:23;6.30;;;3.60;;
15716;SDS011;7960;50.908;4.204;2022-09-01T12:04:54;5.40;;;2.90;;
15716;SDS011;7960;50.908;4.204;2022-09-01T12:07:26;5.05;;;3.10;;
15716;SDS011;7960;50.908;4.204;2022-09-01T12:10:13;12.00;;;3.70;;
15716;SDS011;7960;50.908;4.204;2022-09-01T12:12:44;6.53;;;3.35;;
15716;SDS011;7960;50.908;4.204;2022-09-01T12:15:17;14.00;;;4.20;;
15716;SDS011;7960;50.908;4.204;2022-09-01T12:17:47;4.45;;;3.15;;
15716;SDS011;7960;50.908;4.204;2022-09-01T12:20:18;3.63;;;3.25;;
15716;SDS011;7960;50.908;4.204;2022-09-01T12:22:50;5.65;;;2.88;;
15716;SDS011;7960;50.908;4.204;2022-09-01T12:25:18;16.83;;;3.83;;
15716;SDS011;7960;50.908;4.204;2022-09-01T12:27:46;22.48;;;5.15;;
15716;SDS011;7960;50.908;4.204;2022-09-01T12:30:14;5.03;;;3.35;;
15716;SDS011;7960;50.908;4.204;2022-09-01T12:32:41;4.20;;;3.30;;
15716;SDS011;7960;50.908;4.204;2022-09-01T12:35:14;3.78;;;3.20;;
15716;SDS011;7960;50.908;4.204;2022-09-01T12:37:43;6.38;;;3.55;;
15716;SDS011;7960;50.908;4.204;2022-09-01T12:40:20;12.23;;;3.85;;
15716;SDS011;7960;50.908;4.204;2022-09-01T12:42:50;3.65;;;3.35;;
15716;SDS011;7960;50.908;4.204;2022-09-01T12:48:05;7.47;;;3.30;;
15716;SDS011;7960;50.908;4.204;2022-09-01T12:50:40;5.43;;;3.17;;
15716;SDS011;7960;50.908;4.204;2022-09-01T12:53:14;15.70;;;4.20;;
15716;SDS011;7960;50.908;4.204;2022-09-01T12:58:45;203.35;;;15.65;;
15716;SDS011;7960;50.908;4.204;2022-09-01T13:01:29;4.30;;;2.90;;
15716;SDS011;7960;50.908;4.204;2022-09-01T13:04:11;6.55;;;2.95;;
15716;SDS011;7960;50.908;4.204;2022-09-01T13:06:50;3.88;;;2.80;;
15716;SDS011;7960;50.908;4.204;2022-09-01T13:09:18;6.57;;;2.85;;
15716;SDS011;7960;50.908;4.204;2022-09-01T13:11:45;4.60;;;3.08;;
15716;SDS011;7960;50.908;4.204;2022-09-01T13:14:12;3.45;;;3.15;;
15716;SDS011;7960;50.908;4.204;2022-09-01T13:16:40;4.30;;;3.20;;
15716;SDS011;7960;50.908;4.204;2022-09-01T13:19:08;6.10;;;3.90;;
15716;SDS011;7960;50.908;4.204;2022-09-01T13:21:35;25.77;;;6.07;;
15716;SDS011;7960;50.908;4.204;2022-09-01T13:24:04;6.70;;;3.95;;
15716;SDS011;7960;50.908;4.204;2022-09-01T13:26:32;10.23;;;4.15;;
15716;SDS011;7960;50.908;4.204;2022-09-01T13:28:59;4.45;;;2.78;;
15716;SDS011;7960;50.908;4.204;2022-09-01T13:31:26;10.73;;;3.80;;
15716;SDS011;7960;50.908;4.204;2022-09-01T13:33:55;22.10;;;4.75;;
15716;SDS011;7960;50.908;4.204;2022-09-01T13:36:22;27.15;;;4.68;;
15716;SDS011;7960;50.908;4.204;2022-09-01T13:38:49;13.77;;;4.43;;
15716;SDS011;7960;50.908;4.204;2022-09-01T13:41:18;14.90;;;3.97;;
15716;SDS011;7960;50.908;4.204;2022-09-01T13:43:45;5.28;;;3.22;;
15716;SDS011;7960;50.908;4.204;2022-09-01T13:46:12;6.50;;;3.58;;
15716;SDS011;7960;50.908;4.204;2022-09-01T13:48:39;15.50;;;4.13;;
15716;SDS011;7960;50.908;4.204;2022-09-01T13:51:06;3.35;;;3.03;;
15716;SDS011;7960;50.908;4.204;2022-09-01T13:53:34;10.10;;;3.40;;
15716;SDS011;7960;50.908;4.204;2022-09-01T13:56:01;6.18;;;3.30;;
15716;SDS011;7960;50.908;4.204;2022-09-01T13:58:30;3.40;;;3.10;;
15716;SDS011;7960;50.908;4.204;2022-09-01T14:00:57;3.15;;;2.88;;
15716;SDS011;7960;50.908;4.204;2022-09-01T14:03:24;3.42;;;3.13;;
15716;SDS011;7960;50.908;4.204;2022-09-01T14:05:51;9.82;;;3.75;;
15716;SDS011;7960;50.908;4.204;2022-09-01T14:08:19;4.57;;;2.83;;
15716;SDS011;7960;50.908;4.204;2022-09-01T14:10:48;6.15;;;3.28;;
15716;SDS011;7960;50.908;4.204;2022-09-01T14:13:16;6.10;;;3.03;;
15716;SDS011;7960;50.908;4.204;2022-09-01T14:15:46;13.27;;;3.80;;
15716;SDS011;7960;50.908;4.204;2022-09-01T14:18:13;3.95;;;3.20;;
15716;SDS011;7960;50.908;4.204;2022-09-01T14:20:41;3.72;;;3.30;;
15716;SDS011;7960;50.908;4.204;2022-09-01T14:23:10;4.68;;;2.90;;
15716;SDS011;7960;50.908;4.204;2022-09-01T14:25:41;6.32;;;3.58;;
15716;SDS011;7960;50.908;4.204;2022-09-01T14:28:09;4.82;;;3.22;;
15716;SDS011;7960;50.908;4.204;2022-09-01T14:30:38;4.07;;;3.33;;
15716;SDS011;7960;50.908;4.204;2022-09-01T14:33:07;5.30;;;3.50;;
15716;SDS011;7960;50.908;4.204;2022-09-01T14:35:36;11.55;;;4.28;;
15716;SDS011;7960;50.908;4.204;2022-09-01T14:38:04;5.93;;;3.40;;
15716;SDS011;7960;50.908;4.204;2022-09-01T14:40:32;4.47;;;2.78;;
15716;SDS011;7960;50.908;4.204;2022-09-01T14:43:01;3.20;;;2.90;;
15716;SDS011;7960;50.908;4.204;2022-09-01T14:45:29;5.65;;;2.60;;
15716;SDS011;7960;50.908;4.204;2022-09-01T14:47:57;7.60;;;3.53;;
15716;SDS011;7960;50.908;4.204;2022-09-01T14:50:27;8.15;;;3.55;;
15716;SDS011;7960;50.908;4.204;2022-09-01T14:52:57;6.43;;;3.00;;
15716;SDS011;7960;50.908;4.204;2022-09-01T14:55:28;5.18;;;4.40;;
15716;SDS011;7960;50.908;4.204;2022-09-01T14:57:56;5.35;;;4.75;;
15716;SDS011;7960;50.908;4.204;2022-09-01T15:00:24;9.70;;;3.70;;
15716;SDS011;7960;50.908;4.204;2022-09-01T15:02:52;6.05;;;4.82;;
15716;SDS011;7960;50.908;4.204;2022-09-01T15:05:19;4.95;;;3.65;;
15716;SDS011;7960;50.908;4.204;2022-09-01T15:07:49;5.32;;;3.30;;
15716;SDS011;7960;50.908;4.204;2022-09-01T15:10:17;3.30;;;3.00;;
15716;SDS011;7960;50.908;4.204;2022-09-01T15:12:46;8.57;;;3.45;;
15716;SDS011;7960;50.908;4.204;2022-09-01T15:15:14;4.47;;;3.00;;
15716;SDS011;7960;50.908;4.204;2022-09-01T15:17:42;6.65;;;3.10;;
15716;SDS011;7960;50.908;4.204;2022-09-01T15:20:09;10.73;;;3.78;;
15716;SDS011;7960;50.908;4.204;2022-09-01T15:22:54;3.25;;;2.90;;
15716;SDS011;7960;50.908;4.204;2022-09-01T15:25:22;4.03;;;3.10;;
15716;SDS011;7960;50.908;4.204;2022-09-01T15:27:49;5.80;;;4.15;;
15716;SDS011;7960;50.908;4.204;2022-09-01T15:30:18;4.55;;;2.90;;
15716;SDS011;7960;50.908;4.204;2022-09-01T15:32:47;4.38;;;2.90;;
15716;SDS011;7960;50.908;4.204;2022-09-01T15:35:16;7.30;;;3.42;;
15716;SDS011;7960;50.908;4.204;2022-09-01T15:37:44;11.45;;;3.25;;
15716;SDS011;7960;50.908;4.204;2022-09-01T15:40:14;7.88;;;3.33;;
15716;SDS011;7960;50.908;4.204;2022-09-01T15:42:41;3.10;;;2.80;;